Time;durP1;ratioP1;P1;durP2;ratioP2;P2;SDS_P1;SDS_P2;PMS_P1;PMS_P2;Temp;Humidity;BMP_temperature;BMP_pressure;BME280_temperature;BME280_humidity;BME280_pressure;Samples;Min_cycle;Max_cycle;Signal;HPM_P1;HPM_P2
2023/08/10 00:02:01;;;;;;;10.90;2.60;;;;;;;11.57;86.42;99960.39;103186;1286;59423;-61
2023/08/10 00:04:48;;;;;;;10.00;2.30;;;;;;;11.55;86.87;99961.61;103144;1291;60001;-62
2023/08/10 00:07:36;;;;;;;8.60;2.00;;;;;;;11.53;86.76;99967.88;103094;1286;71315;-61
2023/08/10 00:10:23;;;;;;;6.70;2.10;;;;;;;11.50;87.15;99968.14;102429;1285;1002410;-60
2023/08/10 00:13:10;;;;;;;11.80;2.30;;;;;;;11.48;87.31;99972.70;102915;1286;74356;-60
2023/08/10 00:15:57;;;;;;;11.50;2.20;;;;;;;11.46;87.36;99968.79;102672;1292;59827;-61
2023/08/10 00:18:44;;;;;;;8.40;2.10;;;;;;;11.44;87.59;99968.62;103036;1296;60015;-62
2023/08/10 00:21:31;;;;;;;10.50;2.40;;;;;;;11.41;87.63;99969.55;103466;1285;73006;-62
2023/08/10 00:24:17;;;;;;;9.20;2.90;;;;;;;11.38;87.82;99967.82;103157;1293;69511;-61
2023/08/10 00:27:06;;;;;;;9.30;2.00;;;;;;;11.34;88.20;99970.11;103407;1286;73353;-62
2023/08/10 00:29:53;;;;;;;9.20;2.10;;;;;;;11.31;88.49;99968.03;102895;1287;60047;-60
2023/08/10 00:32:41;;;;;;;8.50;2.20;;;;;;;11.29;88.24;99964.34;103208;1292;60750;-59
2023/08/10 00:35:28;;;;;;;8.40;1.90;;;;;;;11.26;88.28;99962.07;103149;1289;72608;-62
2023/08/10 00:38:15;;;;;;;8.80;2.80;;;;;;;11.22;88.55;99965.40;103156;1288;69490;-61
2023/08/10 00:41:02;;;;;;;11.20;2.50;;;;;;;11.17;89.00;99961.57;103196;1287;73349;-62
2023/08/10 00:43:49;;;;;;;7.70;2.30;;;;;;;11.13;89.23;99964.41;102936;1290;59999;-61
2023/08/10 00:46:37;;;;;;;9.10;4.40;;;;;;;11.07;89.45;99963.39;102953;1298;62107;-62
2023/08/10 00:49:23;;;;;;;7.30;1.40;;;;;;;11.02;89.91;99957.76;102909;1287;72384;-62
2023/08/10 00:52:10;;;;;;;8.90;2.40;;;;;;;10.98;90.25;99955.44;103238;1289;69389;-63
2023/08/10 00:54:57;;;;;;;9.10;2.40;;;;;;;10.93;90.27;99954.27;103201;1290;73369;-61
2023/08/10 00:57:44;;;;;;;11.70;2.70;;;;;;;10.88;91.11;99955.36;103174;1292;59847;-61
2023/08/10 01:00:31;;;;;;;11.00;2.70;;;;;;;10.82;91.09;99955.16;103376;1286;59881;-63
2023/08/10 01:03:19;;;;;;;9.40;1.90;;;;;;;10.77;91.79;99956.40;103159;1290;73801;-65
2023/08/10 01:06:11;;;;;;;10.50;2.40;;;;;;;10.72;91.99;99954.49;103053;1288;69332;-61
2023/08/10 01:09:35;;;;;;;7.70;2.00;;;;;;;10.69;92.31;99956.54;103065;1291;72387;-62
2023/08/10 01:12:41;;;;;;;7.90;2.00;;;;;;;10.64;92.93;99963.48;103106;1286;59337;-61
2023/08/10 01:15:48;;;;;;;8.10;1.90;;;;;;;10.60;93.26;99962.77;102964;1291;59522;-62
2023/08/10 01:18:37;;;;;;;10.60;2.40;;;;;;;10.56;93.77;99957.73;103061;1286;72752;-62
2023/08/10 01:22:01;;;;;;;9.50;2.00;;;;;;;10.53;93.80;99958.28;102666;1292;68561;-62
2023/08/10 01:25:06;;;;;;;6.70;1.60;;;;;;;10.51;93.89;99961.52;102935;1286;74084;-62
2023/08/10 01:27:54;;;;;;;9.30;2.00;;;;;;;10.48;94.50;99957.86;102954;1286;59363;-61
2023/08/10 01:30:42;;;;;;;12.70;2.20;;;;;;;10.45;94.37;99960.00;103063;1286;61698;-60
2023/08/10 01:33:32;;;;;;;12.00;2.00;;;;;;;10.42;94.67;99961.48;103189;1285;73640;-62
2023/08/10 01:36:19;;;;;;;7.70;1.80;;;;;;;10.40;95.65;99964.31;103263;1290;68415;-61
2023/08/10 01:39:06;;;;;;;7.40;1.80;;;;;;;10.39;95.66;99961.16;103189;1292;72046;-61
2023/08/10 01:41:53;;;;;;;10.80;1.80;;;;;;;10.39;95.57;99962.61;102689;1291;60265;-61
2023/08/10 01:44:40;;;;;;;9.70;2.00;;;;;;;10.39;95.59;99960.12;102965;1286;61098;-61
2023/08/10 01:48:06;;;;;;;8.10;1.80;;;;;;;10.41;95.50;99966.17;103001;1291;72660;-60
2023/08/10 01:50:56;;;;;;;7.50;2.00;;;;;;;10.42;95.36;99964.91;103220;1290;67660;-61
2023/08/10 01:53:45;;;;;;;8.30;2.40;;;;;;;10.43;95.29;99966.08;103459;1286;74343;-61
2023/08/10 01:56:32;;;;;;;8.40;1.80;;;;;;;10.45;94.92;99966.99;103125;1286;60121;-60
2023/08/10 01:59:19;;;;;;;7.70;1.80;;;;;;;10.45;95.13;99968.86;102727;1291;59954;-61
2023/08/10 02:02:06;;;;;;;8.90;2.20;;;;;;;10.48;95.03;99977.15;102846;1286;71719;-61
2023/08/10 02:04:52;;;;;;;9.10;1.90;;;;;;;10.50;95.35;99978.27;103024;1290;68544;-62
2023/08/10 02:07:41;;;;;;;9.30;2.20;;;;;;;10.53;94.95;99980.33;103296;1286;74291;-60
2023/08/10 02:10:28;;;;;;;9.00;2.10;;;;;;;10.55;95.38;99982.29;103418;1287;59359;-62
2023/08/10 02:13:15;;;;;;;7.70;1.70;;;;;;;10.59;95.29;99991.42;102926;1289;61029;-61
2023/08/10 02:16:01;;;;;;;6.60;1.90;;;;;;;10.62;95.49;99986.60;102914;1286;72514;-60
2023/08/10 02:18:48;;;;;;;8.40;2.40;;;;;;;10.66;95.37;99983.58;102891;1291;69459;-61
2023/08/10 02:21:35;;;;;;;10.70;1.80;;;;;;;10.70;95.29;99982.17;102831;1286;73287;-61
2023/08/10 02:24:22;;;;;;;7.80;2.20;;;;;;;10.75;95.29;99983.23;103010;1286;61187;-60
2023/08/10 02:27:09;;;;;;;6.90;1.30;;;;;;;10.80;95.38;99982.31;102959;1286;60891;-60
2023/08/10 02:29:55;;;;;;;6.50;2.10;;;;;;;10.83;95.36;99978.35;103513;1286;71096;-62
2023/08/10 02:32:42;;;;;;;8.50;1.90;;;;;;;10.85;95.21;99973.69;103062;1285;66991;-66
2023/08/10 02:35:29;;;;;;;7.60;1.90;;;;;;;10.89;95.30;99978.55;102915;1286;74326;-60
2023/08/10 02:38:15;;;;;;;6.90;2.10;;;;;;;10.92;95.32;99976.02;102908;1291;61045;-61
2023/08/10 02:41:02;;;;;;;7.30;1.70;;;;;;;10.96;95.42;99974.98;103036;1288;59579;-61
2023/08/10 02:43:49;;;;;;;6.80;2.00;;;;;;;11.00;95.52;99976.42;103106;1286;73990;-60
2023/08/10 02:46:36;;;;;;;7.90;1.80;;;;;;;11.05;95.44;99979.41;103184;1285;68621;-61
2023/08/10 02:49:22;;;;;;;6.40;1.80;;;;;;;11.08;95.45;99978.80;103167;1285;74214;-61
2023/08/10 02:52:09;;;;;;;9.00;1.70;;;;;;;11.11;95.17;99979.06;103205;1290;61007;-63
2023/08/10 02:54:56;;;;;;;7.00;1.80;;;;;;;11.15;95.15;99980.55;103279;1285;62318;-60
2023/08/10 02:57:45;;;;;;;7.30;1.90;;;;;;;11.19;94.69;99977.57;103807;1286;73785;-62
2023/08/10 03:00:31;;;;;;;8.10;1.80;;;;;;;11.22;94.69;99982.40;103423;1285;67965;-61
2023/08/10 03:03:18;;;;;;;6.30;1.60;;;;;;;11.27;94.33;99983.13;103341;1285;72956;-62
2023/08/10 03:06:05;;;;;;;7.60;1.90;;;;;;;11.31;94.10;99987.77;103473;1291;59514;-61
2023/08/10 03:08:51;;;;;;;7.90;1.70;;;;;;;11.35;94.00;99989.91;103116;1285;61889;-61
2023/08/10 03:11:39;;;;;;;5.60;1.70;;;;;;;11.38;93.70;99990.77;103267;1290;73840;-60
2023/08/10 03:14:25;;;;;;;8.80;1.90;;;;;;;11.42;93.53;99993.44;103404;1286;69477;-60
2023/08/10 03:17:11;;;;;;;7.10;1.80;;;;;;;11.44;93.25;99986.18;103118;1286;73284;-62
2023/08/10 03:19:58;;;;;;;5.60;1.50;;;;;;;11.49;92.77;99991.64;103133;1286;59404;-62
2023/08/10 03:22:46;;;;;;;9.20;1.90;;;;;;;11.51;93.16;99992.64;103321;1285;59867;-60
2023/08/10 03:25:33;;;;;;;7.30;2.10;;;;;;;11.54;92.92;99993.70;103113;1286;73593;-61
2023/08/10 03:28:20;;;;;;;7.80;1.80;;;;;;;11.57;92.55;99997.03;103278;1285;68462;-63
2023/08/10 03:31:12;;;;;;;7.30;2.10;;;;;;;11.57;92.51;99995.52;103380;1285;74236;-60
2023/08/10 03:34:00;;;;;;;8.10;1.80;;;;;;;11.59;92.53;99998.80;103238;1286;61192;-63
2023/08/10 03:36:47;;;;;;;6.30;1.70;;;;;;;11.61;92.56;99998.27;102741;1292;59731;-62
2023/08/10 03:39:33;;;;;;;6.90;1.70;;;;;;;11.64;92.40;100000.70;102880;1286;72725;-62
2023/08/10 03:42:20;;;;;;;8.10;1.50;;;;;;;11.67;92.23;99998.49;103130;1288;68393;-61
2023/08/10 03:45:07;;;;;;;6.50;1.60;;;;;;;11.69;92.21;100001.34;103155;1287;72016;-59
2023/08/10 03:47:54;;;;;;;6.90;2.00;;;;;;;11.72;92.16;99996.27;102989;1290;59338;-61
2023/08/10 03:50:40;;;;;;;7.20;1.70;;;;;;;11.76;91.95;99998.27;103205;1291;60008;-63
2023/08/10 03:53:29;;;;;;;7.20;1.60;;;;;;;11.80;91.87;100005.45;103394;1289;73542;-61
2023/08/10 03:56:16;;;;;;;6.70;1.80;;;;;;;11.84;91.53;100004.55;103028;1285;69540;-61
2023/08/10 03:59:04;;;;;;;6.40;1.60;;;;;;;11.87;91.05;100001.06;102974;1286;73062;-61
2023/08/10 04:01:51;;;;;;;8.40;1.80;;;;;;;11.92;91.08;99997.30;102860;1292;59489;-61
2023/08/10 04:04:38;;;;;;;6.80;1.40;;;;;;;11.98;90.98;100001.66;103036;1285;61699;-61
2023/08/10 04:07:25;;;;;;;6.70;1.90;;;;;;;12.01;90.56;100001.34;106625;1285;73487;-60
2023/08/10 04:10:11;;;;;;;7.50;1.70;;;;;;;12.06;90.42;100001.79;106536;1285;68761;-63
2023/08/10 04:12:58;;;;;;;6.30;1.60;;;;;;;12.11;89.67;99999.11;106636;1285;74053;-61
2023/08/10 04:15:44;;;;;;;7.10;1.70;;;;;;;12.15;89.39;99995.38;106622;1285;59480;-62
2023/08/10 04:18:30;;;;;;;7.80;1.70;;;;;;;12.19;89.10;99996.88;106629;1285;59565;-62
2023/08/10 04:21:16;;;;;;;8.90;1.90;;;;;;;12.22;88.83;99995.00;106503;1285;72445;-60
2023/08/10 04:24:03;;;;;;;7.30;1.70;;;;;;;12.27;88.36;99992.79;106757;1285;65747;-61
2023/08/10 04:26:50;;;;;;;9.20;2.10;;;;;;;12.32;88.37;99990.95;106495;1285;71806;-61
2023/08/10 04:29:36;;;;;;;6.20;1.60;;;;;;;12.36;88.28;99991.25;106619;1285;59606;-61
2023/08/10 04:32:22;;;;;;;8.50;1.70;;;;;;;12.41;87.84;99993.86;106663;1285;59114;-61
2023/08/10 04:35:09;;;;;;;9.40;2.00;;;;;;;12.47;87.68;99991.29;106620;1285;71073;-61
2023/08/10 04:37:55;;;;;;;6.50;1.80;;;;;;;12.48;87.44;99992.52;106665;1285;67902;-61
2023/08/10 04:40:41;;;;;;;6.10;1.70;;;;;;;12.52;87.55;99994.02;106641;1285;72732;-61
2023/08/10 04:43:28;;;;;;;8.20;2.10;;;;;;;12.55;87.35;99997.30;106535;1286;59484;-61
2023/08/10 04:46:14;;;;;;;5.40;1.50;;;;;;;12.57;87.14;99996.55;106677;1285;59355;-63
2023/08/10 04:49:00;;;;;;;7.60;1.70;;;;;;;12.58;87.00;100002.04;106686;1285;73287;-61
2023/08/10 04:51:47;;;;;;;7.60;1.80;;;;;;;12.63;87.11;100005.90;106668;1285;69225;-60
2023/08/10 04:54:33;;;;;;;7.60;2.20;;;;;;;12.68;86.99;100006.52;106643;1285;72627;-60
2023/08/10 04:57:19;;;;;;;7.20;2.10;;;;;;;12.74;86.78;100006.17;106625;1285;58824;-61
2023/08/10 05:00:10;;;;;;;8.80;1.80;;;;;;;12.79;86.42;100012.12;106644;1285;61249;-60
2023/08/10 05:02:57;;;;;;;7.50;1.80;;;;;;;12.82;86.50;100014.48;106640;1285;72079;-62
2023/08/10 05:05:43;;;;;;;7.70;2.00;;;;;;;12.84;86.24;100015.58;106607;1285;66694;-62
2023/08/10 05:08:29;;;;;;;4.90;1.40;;;;;;;12.93;86.21;100015.71;106647;1285;72850;-60
2023/08/10 05:11:16;;;;;;;10.10;1.90;;;;;;;13.02;85.56;100015.06;106610;1285;59078;-61
2023/08/10 05:14:04;;;;;;;7.80;1.70;;;;;;;13.12;85.26;100021.17;106654;1285;59600;-62
2023/08/10 05:16:49;;;;;;;6.80;1.50;;;;;;;13.24;85.08;100015.81;106595;1285;73172;-62
2023/08/10 05:19:36;;;;;;;8.50;2.10;;;;;;;13.33;84.47;100016.42;106640;1285;68832;-60
2023/08/10 05:22:23;;;;;;;13.30;3.30;;;;;;;13.34;83.82;100016.14;106573;1286;72850;-60
2023/08/10 05:25:11;;;;;;;6.20;1.70;;;;;;;13.38;83.94;100019.16;106653;1285;60573;-61
2023/08/10 05:27:57;;;;;;;7.30;1.60;;;;;;;13.45;83.65;100019.46;106574;1285;58879;-61
2023/08/10 05:30:43;;;;;;;7.30;1.90;;;;;;;13.47;83.47;100015.73;106679;1285;73302;-62
2023/08/10 05:33:29;;;;;;;7.80;1.80;;;;;;;13.43;83.58;100021.45;106657;1285;69124;-60
2023/08/10 05:36:16;;;;;;;9.90;2.00;;;;;;;13.41;83.60;100025.66;106576;1285;71301;-61
2023/08/10 05:39:03;;;;;;;6.20;1.60;;;;;;;13.42;83.76;100033.27;106654;1285;58047;-61
2023/08/10 05:41:49;;;;;;;8.20;1.70;;;;;;;13.42;84.08;100035.30;106657;1285;61183;-61
2023/08/10 05:44:35;;;;;;;8.20;1.60;;;;;;;13.44;84.06;100038.77;106615;1285;72240;-60
2023/08/10 05:47:21;;;;;;;7.30;1.70;;;;;;;13.47;84.04;100041.02;106634;1285;65866;-60
2023/08/10 05:50:08;;;;;;;7.00;2.20;;;;;;;13.53;83.94;100043.23;106608;1285;73523;-61
2023/08/10 05:52:54;;;;;;;9.90;1.90;;;;;;;13.60;83.71;100045.22;106598;1285;59319;-60
2023/08/10 05:55:42;;;;;;;7.20;1.90;;;;;;;13.70;83.74;100041.31;106578;1285;60085;-61
2023/08/10 05:58:28;;;;;;;8.00;2.10;;;;;;;13.80;83.44;100041.63;106619;1285;73087;-60
2023/08/10 06:01:14;;;;;;;8.70;2.50;;;;;;;13.87;83.06;100040.50;106687;1285;67741;-62
2023/08/10 06:04:02;;;;;;;8.80;2.00;;;;;;;13.93;82.85;100043.60;106666;1285;73417;-62
2023/08/10 06:06:48;;;;;;;7.40;1.80;;;;;;;13.97;82.75;100043.26;106597;1285;58931;-60
2023/08/10 06:09:34;;;;;;;8.20;2.20;;;;;;;14.05;82.70;100041.45;106674;1285;61226;-61
2023/08/10 06:12:20;;;;;;;8.40;1.80;;;;;;;14.12;82.24;100041.58;106669;1285;72297;-62
2023/08/10 06:15:07;;;;;;;7.80;1.80;;;;;;;14.15;82.06;100040.02;106670;1285;67825;-60
2023/08/10 06:17:53;;;;;;;6.30;1.80;;;;;;;14.17;81.82;100041.80;106410;1285;73741;-61
2023/08/10 06:20:40;;;;;;;9.00;1.90;;;;;;;14.19;81.68;100044.86;106651;1285;57765;-60
2023/08/10 06:23:28;;;;;;;8.70;1.80;;;;;;;14.21;81.87;100044.14;106674;1285;60256;-60
2023/08/10 06:26:14;;;;;;;9.30;2.00;;;;;;;14.26;81.67;100045.36;106506;1286;72987;-64
2023/08/10 06:29:02;;;;;;;11.20;2.40;;;;;;;14.30;81.22;100045.92;106628;1285;66476;-61
2023/08/10 06:31:48;;;;;;;8.50;1.90;;;;;;;14.35;81.23;100043.31;106672;1285;73811;-62
2023/08/10 06:34:35;;;;;;;7.60;1.90;;;;;;;14.40;81.17;100047.34;106611;1285;57017;-62
2023/08/10 06:37:21;;;;;;;10.40;1.90;;;;;;;14.49;80.86;100048.13;106662;1285;60120;-61
2023/08/10 06:40:08;;;;;;;7.40;1.60;;;;;;;14.59;80.68;100047.49;106647;1285;71108;-62
2023/08/10 06:42:55;;;;;;;7.50;1.80;;;;;;;14.70;80.06;100047.23;106668;1285;67694;-63
2023/08/10 06:45:59;;;;;;;10.20;2.00;;;;;;;14.80;79.65;100049.66;106624;1285;72610;-62
2023/08/10 06:48:47;;;;;;;10.20;2.00;;;;;;;14.88;79.24;100055.73;106638;1285;58009;-65
2023/08/10 06:51:33;;;;;;;10.60;1.90;;;;;;;14.96;79.26;100060.83;106642;1285;60127;-60
2023/08/10 06:54:20;;;;;;;7.10;2.00;;;;;;;14.99;78.70;100063.61;106673;1285;72855;-63
2023/08/10 06:57:06;;;;;;;8.70;2.10;;;;;;;15.02;78.59;100066.89;106647;1285;66944;-62
2023/08/10 06:59:53;;;;;;;8.40;2.20;;;;;;;15.13;78.57;100071.89;106575;1285;73163;-61
2023/08/10 07:02:42;;;;;;;11.20;2.40;;;;;;;15.25;77.86;100073.96;106601;1285;58050;-62
2023/08/10 07:05:29;;;;;;;6.50;2.30;;;;;;;15.39;77.30;100074.15;106607;1285;59163;-62
2023/08/10 07:08:14;;;;;;;10.50;2.50;;;;;;;15.54;76.67;100078.92;106617;1285;74176;-60
2023/08/10 07:11:03;;;;;;;7.30;1.80;;;;;;;15.75;76.21;100074.92;106640;1285;68069;-60
2023/08/10 07:13:50;;;;;;;10.90;2.10;;;;;;;15.99;74.31;100081.70;106612;1285;72577;-60
2023/08/10 07:16:36;;;;;;;8.60;2.20;;;;;;;16.21;73.14;100081.96;106564;1285;60823;-60
2023/08/10 07:19:23;;;;;;;8.90;2.10;;;;;;;16.51;72.34;100080.70;106605;1285;61371;-62
2023/08/10 07:22:09;;;;;;;8.90;1.90;;;;;;;16.81;71.19;100083.23;106482;1285;201171;-63
2023/08/10 07:24:55;;;;;;;8.10;1.90;;;;;;;16.96;69.22;100085.70;106562;1286;66646;-62
2023/08/10 07:27:41;;;;;;;9.70;2.00;;;;;;;16.96;67.60;100082.48;106524;1286;73856;-62
2023/08/10 07:30:28;;;;;;;9.40;2.40;;;;;;;16.99;67.95;100085.52;106535;1286;57440;-61
2023/08/10 07:33:15;;;;;;;6.60;2.00;;;;;;;17.10;68.01;100086.69;106664;1285;59060;-60
2023/08/10 07:36:02;;;;;;;10.10;2.00;;;;;;;17.15;67.61;100092.23;106638;1285;71662;-61
2023/08/10 07:38:48;;;;;;;9.70;2.60;;;;;;;17.19;67.08;100091.86;106645;1285;67119;-61
2023/08/10 07:41:34;;;;;;;9.40;2.40;;;;;;;17.45;67.19;100089.19;106671;1285;73734;-63
2023/08/10 07:44:20;;;;;;;8.70;1.80;;;;;;;17.79;64.76;100091.33;106606;1285;58948;-63
2023/08/10 07:47:06;;;;;;;8.10;1.70;;;;;;;18.34;63.48;100091.42;106658;1285;60333;-63
2023/08/10 07:49:52;;;;;;;7.30;1.60;;;;;;;19.23;60.29;100087.73;106677;1285;73816;-63
2023/08/10 07:52:38;;;;;;;8.10;1.60;;;;;;;19.38;57.93;100095.66;106613;1285;67811;-63
2023/08/10 07:55:24;;;;;;;9.00;1.90;;;;;;;19.16;58.77;100100.88;106627;1285;73592;-62
2023/08/10 07:58:14;;;;;;;10.40;2.00;;;;;;;18.99;59.18;100101.30;106511;1285;57805;-62
2023/08/10 08:01:00;;;;;;;9.10;1.80;;;;;;;18.87;59.53;100106.66;106669;1285;59032;-62
2023/08/10 08:03:46;;;;;;;9.40;2.20;;;;;;;18.67;59.92;100111.20;106692;1285;73940;-61
2023/08/10 08:06:38;;;;;;;9.20;2.00;;;;;;;18.50;60.16;100112.45;106632;1285;67872;-62
2023/08/10 08:09:24;;;;;;;8.80;2.00;;;;;;;18.45;60.38;100111.95;106355;1285;73674;-63
2023/08/10 08:12:10;;;;;;;9.30;2.10;;;;;;;18.47;60.50;100112.16;106477;1286;58784;-65
2023/08/10 08:14:56;;;;;;;8.30;2.00;;;;;;;18.56;60.26;100111.85;106686;1285;59141;-63
2023/08/10 08:18:38;;;;;;;7.80;1.90;;;;;;;18.58;59.78;100113.59;106704;1285;73087;-61
2023/08/10 08:21:29;;;;;;;8.40;2.10;;;;;;;18.76;59.32;100114.48;106657;1285;67086;-61
2023/08/10 08:24:17;;;;;;;12.30;4.40;;;;;;;19.04;58.70;100113.39;106382;1286;70678;-61
2023/08/10 08:27:03;;;;;;;9.60;2.10;;;;;;;20.04;55.67;100108.09;106683;1285;57938;-61
2023/08/10 08:29:49;;;;;;;9.10;1.70;;;;;;;21.55;52.50;100105.73;106643;1285;60143;-61
2023/08/10 08:32:35;;;;;;;10.50;1.80;;;;;;;22.18;48.29;100105.07;106655;1285;73016;-62
2023/08/10 08:35:36;;;;;;;6.90;1.60;;;;;;;22.08;48.28;100105.79;106553;1286;68996;-61
2023/08/10 08:38:23;;;;;;;7.40;2.00;;;;;;;22.25;48.11;100106.80;106651;1285;70428;-61
2023/08/10 08:41:10;;;;;;;7.40;1.60;;;;;;;22.38;47.34;100108.45;106700;1285;57328;-62
2023/08/10 08:43:57;;;;;;;7.90;1.60;;;;;;;23.24;45.32;100105.28;106570;1286;60419;-63
2023/08/10 08:46:48;;;;;;;8.90;1.60;;;;;;;25.22;42.04;100098.86;106656;1285;73105;-63
2023/08/10 08:49:35;;;;;;;7.90;1.90;;;;;;;26.98;36.88;100086.75;106677;1285;68071;-62
2023/08/10 08:52:21;;;;;;;7.70;1.60;;;;;;;27.35;34.36;100080.62;106500;1286;72977;-63
2023/08/10 08:55:11;;;;;;;8.60;1.50;;;;;;;26.36;35.47;100083.41;106648;1285;58177;-61
2023/08/10 08:57:57;;;;;;;10.10;1.70;;;;;;;25.32;37.33;100092.54;106693;1285;60338;-64
2023/08/10 09:00:52;;;;;;;9.10;1.70;;;;;;;24.36;38.92;100097.73;106724;1285;70945;-65
2023/08/10 09:03:39;;;;;;;9.70;1.80;;;;;;;23.07;41.46;100101.50;106559;1286;66360;-64
2023/08/10 09:06:25;;;;;;;9.60;2.00;;;;;;;22.28;43.15;100101.64;106527;1286;73758;-65
2023/08/10 09:09:12;;;;;;;10.80;2.00;;;;;;;21.87;43.43;100101.94;106671;1285;57993;-61
2023/08/10 09:12:28;;;;;;;8.40;1.90;;;;;;;21.56;43.57;100108.34;106648;1285;61273;-63
2023/08/10 09:15:19;;;;;;;9.90;1.90;;;;;;;21.02;43.87;100112.48;106692;1285;74007;-61
2023/08/10 09:18:06;;;;;;;9.50;1.70;;;;;;;20.49;44.40;100116.00;106634;1286;68183;-66
2023/08/10 09:21:06;;;;;;;7.70;1.60;;;;;;;20.04;44.75;100121.05;106577;1286;73549;-64
2023/08/10 09:23:53;;;;;;;7.60;1.40;;;;;;;19.93;45.19;100124.83;106543;1285;57903;-63
2023/08/10 09:26:40;;;;;;;10.20;1.90;;;;;;;20.03;45.06;100121.28;106473;1285;58915;-62
2023/08/10 09:29:30;;;;;;;7.10;1.80;;;;;;;20.39;44.50;100120.73;106566;1285;74046;-65
2023/08/10 09:32:19;;;;;;;7.20;1.60;;;;;;;20.71;43.84;100119.48;106666;1285;67802;-63
2023/08/10 09:35:06;;;;;;;7.80;1.70;;;;;;;21.00;43.65;100120.38;106702;1285;72699;-63
2023/08/10 09:37:59;;;;;;;9.00;1.50;;;;;;;20.98;43.53;100121.30;106607;1285;57876;-65
2023/08/10 09:40:45;;;;;;;8.90;1.60;;;;;;;21.03;43.57;100123.79;106464;1286;60447;-67
2023/08/10 09:43:31;;;;;;;10.50;1.70;;;;;;;21.00;44.11;100129.40;106667;1285;72835;-64
2023/08/10 09:46:17;;;;;;;7.40;1.60;;;;;;;20.93;43.74;100128.77;106685;1285;66548;-65
2023/08/10 09:49:04;;;;;;;7.00;1.60;;;;;;;20.88;44.17;100130.98;106271;1289;72568;-65
2023/08/10 09:51:50;;;;;;;9.10;1.60;;;;;;;20.74;44.38;100137.86;106228;1289;58046;-65
2023/08/10 09:54:37;;;;;;;7.80;1.80;;;;;;;20.71;45.15;100144.38;106294;1290;60458;-65
2023/08/10 09:57:25;;;;;;;7.60;1.60;;;;;;;20.61;45.39;100145.69;106166;1290;73766;-62
2023/08/10 10:00:18;;;;;;;9.60;1.90;;;;;;;20.38;45.08;100143.73;106245;1289;66998;-64
2023/08/10 10:03:05;;;;;;;9.10;1.80;;;;;;;20.16;45.62;100150.64;106080;1290;72478;-65
2023/08/10 10:05:51;;;;;;;8.20;1.50;;;;;;;19.97;46.32;100153.03;106148;1291;57907;-66
2023/08/10 10:08:38;;;;;;;6.60;1.30;;;;;;;19.92;46.53;100150.52;106037;1290;58962;-65
2023/08/10 10:11:28;;;;;;;8.50;1.70;;;;;;;19.83;46.78;100154.50;106151;1291;73942;-65
2023/08/10 10:14:14;;;;;;;9.80;1.90;;;;;;;19.76;47.28;100159.94;106174;1289;67928;-63
2023/08/10 10:17:03;;;;;;;7.80;1.60;;;;;;;19.85;47.71;100161.43;106243;1290;72845;-65
2023/08/10 10:19:51;;;;;;;7.20;1.50;;;;;;;19.92;47.06;100166.61;106341;1286;57915;-64
2023/08/10 10:22:38;;;;;;;8.50;1.90;;;;;;;19.91;47.09;100169.91;106406;1289;60496;-64
2023/08/10 10:25:24;;;;;;;8.40;1.80;;;;;;;19.95;47.10;100169.48;106512;1285;71682;-67
2023/08/10 10:28:16;;;;;;;7.70;1.70;;;;;;;20.02;47.34;100170.62;106484;1286;67904;-64
2023/08/10 10:31:11;;;;;;;8.80;1.70;;;;;;;19.89;47.49;100169.11;106709;1285;72238;-65
2023/08/10 10:34:01;;;;;;;7.80;1.80;;;;;;;19.51;48.41;100176.45;106637;1285;59214;-67
2023/08/10 10:37:06;;;;;;;8.00;1.70;;;;;;;19.12;49.54;100173.05;106661;1285;61434;-65
2023/08/10 10:39:52;;;;;;;9.30;1.70;;;;;;;18.98;50.29;100177.48;106550;1285;72298;-63
2023/08/10 10:43:03;;;;;;;11.90;1.80;;;;;;;19.12;50.68;100179.18;106653;1285;67833;-64
2023/08/10 10:45:50;;;;;;;8.60;1.90;;;;;;;19.16;51.29;100176.19;106506;1286;71525;-66
2023/08/10 10:48:36;;;;;;;9.80;1.70;;;;;;;19.07;51.27;100178.17;106456;1286;59132;-65
2023/08/10 10:51:24;;;;;;;6.90;1.60;;;;;;;19.01;51.38;100179.85;106672;1285;60304;-68
2023/08/10 10:54:11;;;;;;;9.70;1.80;;;;;;;18.91;51.44;100178.79;106536;1285;72225;-65
2023/08/10 10:56:59;;;;;;;7.10;1.60;;;;;;;18.71;51.56;100176.11;106688;1285;68001;-64
2023/08/10 10:59:52;;;;;;;10.20;1.90;;;;;;;18.47;52.59;100178.20;106491;1285;72498;-65
2023/08/10 11:02:40;;;;;;;7.40;1.60;;;;;;;18.44;53.19;100181.95;106614;1285;57804;-67
2023/08/10 11:05:27;;;;;;;9.50;1.60;;;;;;;18.41;53.38;100181.54;106651;1285;57936;-65
2023/08/10 11:08:15;;;;;;;8.40;1.80;;;;;;;18.32;54.02;100199.44;106547;1285;72896;-66
2023/08/10 11:11:01;;;;;;;9.60;1.70;;;;;;;18.14;56.42;100198.13;106472;1285;67952;-65
2023/08/10 11:13:48;;;;;;;8.80;1.70;;;;;;;17.94;58.11;100200.27;106675;1285;71743;-65
2023/08/10 11:16:44;;;;;;;7.40;1.60;;;;;;;17.65;59.41;100206.48;106452;1286;57919;-65
2023/08/10 11:19:30;;;;;;;7.80;1.60;;;;;;;17.37;60.35;100208.46;106564;1285;61306;-65
2023/08/10 11:22:17;;;;;;;8.00;1.70;;;;;;;17.23;61.74;100209.12;106612;1285;74387;-64
2023/08/10 11:25:24;;;;;;;8.00;2.00;;;;;;;17.20;62.72;100206.86;106632;1285;66846;-65
2023/08/10 11:28:10;;;;;;;8.10;1.80;;;;;;;17.39;61.95;100205.45;106550;1285;72859;-65
2023/08/10 11:31:06;;;;;;;7.90;1.70;;;;;;;17.90;60.98;100205.16;106625;1285;57384;-65
2023/08/10 11:33:55;;;;;;;9.50;2.40;;;;;;;18.59;59.16;100198.48;106625;1285;57813;-64
2023/08/10 11:36:42;;;;;;;7.80;1.80;;;;;;;19.32;56.91;100201.00;106647;1286;72951;-66
2023/08/10 11:39:28;;;;;;;7.20;2.00;;;;;;;20.04;54.27;100198.84;106712;1285;67924;-65
2023/08/10 11:42:14;;;;;;;7.60;1.50;;;;;;;20.56;52.33;100201.39;106622;1285;73893;-62
2023/08/10 11:45:00;;;;;;;8.10;1.80;;;;;;;20.95;51.17;100201.58;106606;1285;57959;-65
2023/08/10 11:47:52;;;;;;;7.70;1.80;;;;;;;21.14;50.25;100207.28;106701;1285;59382;-64
2023/08/10 11:50:59;;;;;;;6.40;1.50;;;;;;;21.27;49.49;100207.14;106663;1285;73099;-64
2023/08/10 11:53:47;;;;;;;8.30;1.70;;;;;;;21.24;47.82;100205.27;106701;1285;68963;-65
2023/08/10 11:56:34;;;;;;;7.30;1.80;;;;;;;21.12;47.89;100202.25;106692;1285;73725;-64
2023/08/10 11:59:21;;;;;;;8.70;1.90;;;;;;;21.07;47.82;100202.02;106485;1285;57890;-64
2023/08/10 12:02:11;;;;;;;8.60;1.40;;;;;;;21.04;47.70;100195.43;106660;1285;59136;-65
2023/08/10 12:05:01;;;;;;;10.20;1.70;;;;;;;20.98;48.01;100197.80;106652;1286;74166;-64
2023/08/10 12:07:47;;;;;;;7.90;1.90;;;;;;;20.81;47.88;100197.62;106513;1286;66577;-64
2023/08/10 12:10:39;;;;;;;12.10;1.90;;;;;;;20.61;47.96;100198.01;106684;1285;73679;-65
2023/08/10 12:13:25;;;;;;;10.00;1.80;;;;;;;20.43;48.33;100197.77;106517;1285;57372;-65
2023/08/10 12:16:12;;;;;;;7.20;1.70;;;;;;;20.19;47.60;100198.58;106706;1285;60093;-64
2023/08/10 12:18:59;;;;;;;8.10;1.80;;;;;;;19.86;45.62;100198.86;106727;1285;73168;-65
2023/08/10 12:21:46;;;;;;;6.80;1.70;;;;;;;19.67;45.41;100200.34;106713;1285;68745;-64
2023/08/10 12:24:32;;;;;;;7.60;1.70;;;;;;;19.56;45.96;100205.14;106625;1285;72695;-64
2023/08/10 12:27:18;;;;;;;7.30;1.50;;;;;;;19.29;45.99;100203.51;106603;1285;57326;-65
2023/08/10 12:30:05;;;;;;;7.50;1.90;;;;;;;19.23;46.40;100204.61;106539;1285;60047;-67
2023/08/10 12:32:51;;;;;;;7.30;1.60;;;;;;;19.27;46.75;100208.98;106499;1285;73891;-63
2023/08/10 12:35:39;;;;;;;8.40;1.70;;;;;;;19.29;47.21;100210.16;106730;1285;67746;-64
2023/08/10 12:38:25;;;;;;;6.00;1.60;;;;;;;19.38;47.15;100218.02;106442;1286;72541;-63
2023/08/10 12:41:11;;;;;;;10.20;4.10;;;;;;;19.44;46.01;100217.16;106624;1285;59070;-64
2023/08/10 12:43:59;;;;;;;8.00;1.80;;;;;;;19.44;45.55;100214.94;106659;1285;61108;-63
2023/08/10 12:46:45;;;;;;;5.80;1.40;;;;;;;19.37;45.55;100214.48;106684;1285;71854;-63
2023/08/10 12:49:32;;;;;;;8.80;1.80;;;;;;;19.31;45.75;100217.02;106688;1285;67998;-63
2023/08/10 12:52:18;;;;;;;7.30;1.50;;;;;;;19.32;46.59;100220.23;106643;1285;72483;-63
2023/08/10 12:55:05;;;;;;;7.10;1.60;;;;;;;19.31;46.33;100223.98;106450;1286;59056;-64
2023/08/10 12:57:51;;;;;;;8.30;1.50;;;;;;;19.42;46.33;100226.30;106669;1285;61257;-66